createdAt,value
2018-07-16T00:00:40.362Z,3.93
2018-07-16T00:03:09.257Z,3.90
2018-07-16T00:05:38.194Z,3.83
2018-07-16T00:08:07.112Z,4.17
2018-07-16T00:10:36.024Z,3.67
2018-07-16T00:13:04.938Z,4.47
2018-07-16T00:15:33.971Z,3.70
2018-07-16T00:18:02.964Z,4.60
2018-07-16T00:20:31.867Z,3.93
2018-07-16T00:23:00.754Z,4.87
2018-07-16T00:25:29.740Z,4.80
2018-07-16T00:27:58.632Z,4.83
2018-07-16T00:30:27.548Z,4.17
2018-07-16T00:32:56.446Z,4.27
2018-07-16T00:35:25.433Z,4.50
2018-07-16T00:37:54.420Z,4.70
2018-07-16T00:40:23.376Z,4.70
2018-07-16T00:42:52.293Z,4.40
2018-07-16T00:45:21.961Z,4.53
2018-07-16T00:47:51.644Z,4.63
2018-07-16T00:50:20.558Z,5.00
2018-07-16T00:52:49.539Z,4.40
2018-07-16T00:55:18.487Z,5.00
2018-07-16T00:57:47.476Z,4.57
2018-07-16T01:00:16.870Z,4.63
2018-07-16T01:02:45.828Z,5.10
2018-07-16T01:05:14.760Z,4.37
2018-07-16T01:07:43.658Z,5.10
2018-07-16T01:10:12.590Z,4.47
2018-07-16T01:12:41.536Z,5.10
2018-07-16T01:15:10.862Z,4.57
2018-07-16T01:17:39.822Z,5.10
2018-07-16T01:20:08.758Z,4.93
2018-07-16T01:22:37.661Z,5.20
2018-07-16T01:25:06.812Z,5.20
2018-07-16T01:27:35.790Z,4.40
2018-07-16T01:30:04.980Z,5.27
2018-07-16T01:32:33.994Z,5.60
2018-07-16T01:35:03.023Z,5.53
2018-07-16T01:37:31.984Z,5.13
2018-07-16T01:40:00.960Z,5.57
2018-07-16T01:42:29.924Z,5.37
2018-07-16T01:44:58.819Z,5.17
2018-07-16T01:47:27.869Z,4.93
2018-07-16T01:49:56.774Z,5.40
2018-07-16T01:52:25.735Z,5.30
2018-07-16T01:54:54.715Z,5.10
2018-07-16T01:57:23.635Z,5.57
2018-07-16T01:59:52.545Z,5.23
2018-07-16T02:02:21.454Z,5.90
2018-07-16T02:04:50.352Z,6.20
2018-07-16T02:07:19.295Z,5.80
2018-07-16T02:09:48.272Z,5.60
2018-07-16T02:12:17.216Z,5.20
2018-07-16T02:14:46.134Z,5.50
2018-07-16T02:17:15.063Z,5.80
2018-07-16T02:19:44.261Z,4.97
2018-07-16T02:22:13.260Z,5.50
2018-07-16T02:24:42.172Z,5.57
2018-07-16T02:27:11.122Z,5.97
2018-07-16T02:29:40.174Z,5.17
2018-07-16T02:32:09.126Z,5.53
2018-07-16T02:34:38.096Z,5.53
2018-07-16T02:37:07.089Z,5.37
2018-07-16T02:39:36.000Z,5.37
2018-07-16T02:42:04.933Z,5.27
2018-07-16T02:44:33.881Z,5.73
2018-07-16T02:47:02.784Z,5.47
2018-07-16T02:49:31.687Z,5.43
2018-07-16T02:52:00.596Z,5.33
2018-07-16T02:54:29.569Z,5.37
2018-07-16T02:56:58.454Z,5.93
2018-07-16T02:59:27.357Z,6.20
2018-07-16T03:01:56.251Z,5.87
2018-07-16T03:04:25.214Z,5.93
2018-07-16T03:06:54.191Z,6.07
2018-07-16T03:09:23.184Z,5.50
2018-07-16T03:11:52.206Z,5.47
2018-07-16T03:14:21.305Z,6.30
2018-07-16T03:16:50.205Z,5.30
2018-07-16T03:19:19.123Z,5.87
2018-07-16T03:21:48.066Z,6.23
2018-07-16T03:24:17.005Z,6.10
2018-07-16T03:26:45.913Z,6.20
2018-07-16T03:29:14.944Z,5.90
2018-07-16T03:31:43.868Z,6.30
2018-07-16T03:34:12.914Z,6.50
2018-07-16T03:36:41.937Z,6.27
2018-07-16T03:39:11.231Z,5.77
2018-07-16T03:41:40.216Z,6.20
2018-07-16T03:44:09.150Z,5.83
2018-07-16T03:46:38.108Z,6.53
2018-07-16T03:49:07.023Z,6.03
2018-07-16T03:51:35.900Z,5.93
2018-07-16T03:54:04.876Z,5.80
2018-07-16T03:56:33.786Z,6.20
2018-07-16T03:59:02.688Z,6.20
2018-07-16T04:01:31.748Z,5.57
2018-07-16T04:04:00.605Z,6.20
2018-07-16T04:06:29.660Z,5.73
2018-07-16T04:08:58.608Z,6.30
2018-07-16T04:11:27.577Z,5.53
2018-07-16T04:13:56.483Z,6.53
2018-07-16T04:16:25.376Z,6.53
2018-07-16T04:18:54.320Z,6.43
2018-07-16T04:21:23.332Z,6.70
2018-07-16T04:23:52.250Z,6.07
2018-07-16T04:26:21.270Z,6.40
2018-07-16T04:28:50.160Z,6.17
2018-07-16T04:31:19.673Z,6.20
2018-07-16T04:33:48.631Z,6.07
2018-07-16T04:36:17.714Z,6.23
2018-07-16T04:38:46.645Z,6.17
2018-07-16T04:41:15.586Z,5.97
2018-07-16T04:43:44.544Z,5.73
2018-07-16T04:46:13.521Z,5.83
2018-07-16T04:48:42.451Z,5.43
2018-07-16T04:51:11.371Z,5.63
2018-07-16T04:53:40.296Z,6.03
2018-07-16T04:56:09.200Z,6.00
2018-07-16T04:58:38.196Z,6.23
2018-07-16T05:01:07.752Z,6.47
2018-07-16T05:03:36.665Z,5.50
2018-07-16T05:06:05.591Z,6.33
2018-07-16T05:08:34.796Z,7.10
2018-07-16T05:11:03.737Z,5.97
2018-07-16T05:13:38.164Z,6.10
2018-07-16T05:16:07.816Z,6.23
2018-07-16T05:18:36.728Z,6.63
2018-07-16T05:21:05.667Z,6.63
2018-07-16T05:23:34.760Z,5.77
2018-07-16T05:26:03.665Z,6.90
2018-07-16T05:28:32.666Z,6.30
2018-07-16T05:31:01.607Z,6.73
2018-07-16T05:33:30.484Z,6.20
2018-07-16T05:35:59.449Z,6.17
2018-07-16T05:38:28.342Z,6.37
2018-07-16T05:40:57.324Z,6.70
2018-07-16T05:43:26.316Z,7.90
2018-07-16T05:45:55.297Z,6.87
2018-07-16T05:48:24.452Z,7.20
2018-07-16T05:50:53.408Z,7.30
2018-07-16T05:53:22.298Z,7.33
2018-07-16T05:55:51.533Z,6.63
2018-07-16T05:58:20.188Z,6.97
2018-07-16T06:00:49.119Z,6.57
2018-07-16T06:03:18.153Z,7.20
2018-07-16T06:05:47.130Z,7.67
2018-07-16T06:08:16.011Z,6.57
2018-07-16T06:10:44.978Z,6.97
2018-07-16T06:13:13.917Z,6.70
2018-07-16T06:15:42.937Z,7.13
2018-07-16T06:18:11.924Z,6.60
2018-07-16T06:20:40.985Z,6.70
2018-07-16T06:23:09.933Z,6.83
2018-07-16T06:25:38.939Z,7.33
2018-07-16T06:28:07.984Z,6.47
2018-07-16T06:30:36.873Z,6.50
2018-07-16T06:33:05.852Z,6.73
2018-07-16T06:35:34.755Z,6.20
2018-07-16T06:38:04.059Z,6.00
2018-07-16T06:40:33.141Z,5.50
2018-07-16T06:43:01.906Z,5.13
2018-07-16T06:45:30.813Z,5.67
2018-07-16T06:47:59.754Z,5.83
2018-07-16T06:50:28.692Z,5.50
2018-07-16T06:52:57.759Z,5.17
2018-07-16T06:55:26.812Z,4.87
2018-07-16T06:57:55.741Z,4.63
2018-07-16T07:00:24.709Z,4.80
2018-07-16T07:02:53.665Z,4.73
2018-07-16T07:05:22.633Z,4.87
2018-07-16T07:07:51.667Z,4.87
2018-07-16T07:10:20.645Z,4.07
2018-07-16T07:12:49.663Z,3.80
2018-07-16T07:15:18.738Z,3.50
2018-07-16T07:17:47.628Z,3.80
2018-07-16T07:20:16.834Z,3.87
2018-07-16T07:22:45.805Z,4.17
2018-07-16T07:25:14.850Z,3.73
2018-07-16T07:27:43.850Z,3.93
2018-07-16T07:30:12.843Z,3.70
2018-07-16T07:32:41.813Z,3.80
2018-07-16T07:35:10.830Z,4.10
2018-07-16T07:37:39.765Z,3.57
2018-07-16T07:40:08.752Z,4.07
2018-07-16T07:42:37.749Z,3.30
2018-07-16T07:45:06.802Z,3.40
2018-07-16T07:47:35.847Z,3.60
2018-07-16T07:50:04.901Z,3.30
2018-07-16T07:52:33.831Z,3.80
2018-07-16T07:55:04.367Z,3.87
2018-07-16T07:57:33.026Z,3.17
2018-07-16T08:00:03.018Z,3.30
2018-07-16T08:02:32.002Z,3.50
2018-07-16T08:05:00.959Z,3.13
2018-07-16T08:07:29.928Z,3.27
2018-07-16T08:09:58.886Z,3.27
2018-07-16T08:12:27.884Z,3.00
2018-07-16T08:14:56.862Z,3.70
2018-07-16T08:17:25.846Z,3.03
2018-07-16T08:19:54.830Z,2.43
2018-07-16T08:22:23.840Z,2.93
2018-07-16T08:24:52.754Z,2.53
2018-07-16T08:27:21.848Z,2.50
2018-07-16T08:29:50.773Z,2.70
2018-07-16T08:32:19.882Z,2.73
2018-07-16T08:34:48.876Z,2.73
2018-07-16T08:37:17.843Z,2.33
2018-07-16T08:39:47.031Z,3.23
2018-07-16T08:42:15.986Z,2.73
2018-07-16T08:44:44.975Z,2.60
2018-07-16T08:47:13.972Z,2.90
2018-07-16T08:49:43.202Z,2.93
2018-07-16T08:52:12.328Z,2.57
2018-07-16T08:54:43.697Z,2.90
2018-07-16T08:57:12.677Z,2.40
2018-07-16T08:59:41.612Z,2.50
2018-07-16T09:02:10.573Z,2.40
2018-07-16T09:04:39.588Z,2.53
2018-07-16T09:07:08.866Z,2.67
2018-07-16T09:09:43.424Z,2.73
2018-07-16T09:12:12.391Z,2.80
2018-07-16T09:14:41.384Z,2.30
2018-07-16T09:17:10.607Z,2.67
2018-07-16T09:19:39.523Z,2.30
2018-07-16T09:22:08.553Z,2.60
2018-07-16T09:24:37.650Z,2.43
2018-07-16T09:27:06.620Z,2.30
2018-07-16T09:29:35.539Z,2.13
2018-07-16T09:32:07.403Z,2.23
2018-07-16T09:34:36.430Z,2.57
2018-07-16T09:37:12.036Z,2.80
2018-07-16T09:39:40.997Z,2.30
2018-07-16T09:42:10.000Z,2.60
2018-07-16T09:44:39.120Z,2.10
2018-07-16T09:47:08.002Z,2.20
2018-07-16T09:49:42.316Z,2.93
2018-07-16T09:52:11.357Z,2.17
2018-07-16T09:54:40.407Z,1.80
2018-07-16T09:57:09.416Z,2.13
2018-07-16T09:59:38.457Z,1.73
2018-07-16T10:02:12.618Z,2.43
2018-07-16T10:04:41.524Z,2.47
2018-07-16T10:07:10.605Z,2.67
2018-07-16T10:09:39.509Z,2.60
2018-07-16T10:12:08.912Z,2.30
2018-07-16T10:14:38.201Z,2.17
2018-07-16T10:17:07.789Z,2.30
2018-07-16T10:19:36.770Z,2.40
2018-07-16T10:22:05.756Z,2.30
2018-07-16T10:24:34.683Z,2.60
2018-07-16T10:27:08.986Z,2.60
2018-07-16T10:29:37.884Z,2.60
2018-07-16T10:32:07.219Z,2.97
2018-07-16T10:34:36.198Z,2.60
2018-07-16T10:37:05.244Z,2.90
2018-07-16T10:39:34.178Z,2.70
2018-07-16T10:42:03.199Z,2.70
2018-07-16T10:44:32.280Z,2.50
2018-07-16T10:47:01.257Z,2.90
2018-07-16T10:49:30.300Z,3.53
2018-07-16T10:51:59.272Z,2.70
2018-07-16T10:54:28.212Z,3.17
2018-07-16T10:56:57.140Z,2.67
2018-07-16T10:59:26.058Z,3.03
2018-07-16T11:01:55.142Z,3.17
2018-07-16T11:04:24.024Z,2.87
2018-07-16T11:06:53.044Z,3.07
2018-07-16T11:09:22.128Z,2.90
2018-07-16T11:11:51.038Z,2.90
2018-07-16T11:14:20.056Z,2.83
2018-07-16T11:16:48.949Z,2.90
2018-07-16T11:19:17.906Z,2.87
2018-07-16T11:21:46.878Z,3.23
2018-07-16T11:24:16.182Z,3.17
2018-07-16T11:26:45.205Z,3.57
2018-07-16T11:29:14.107Z,3.27
2018-07-16T11:31:43.187Z,4.00
2018-07-16T11:34:12.096Z,3.60
2018-07-16T11:36:41.132Z,3.20
2018-07-16T11:39:10.070Z,3.33
2018-07-16T11:41:39.212Z,2.70
2018-07-16T11:44:08.852Z,3.40
2018-07-16T11:46:37.910Z,3.57
2018-07-16T11:49:06.841Z,3.33
2018-07-16T11:51:35.787Z,3.53
2018-07-16T11:54:04.718Z,3.73
2018-07-16T11:56:33.647Z,3.77
2018-07-16T11:59:02.707Z,3.20
2018-07-16T12:01:31.548Z,3.20
2018-07-16T12:04:00.456Z,3.80
2018-07-16T12:06:29.351Z,3.63
2018-07-16T12:08:58.232Z,4.37
2018-07-16T12:11:27.157Z,3.90
2018-07-16T12:13:56.498Z,3.50
2018-07-16T12:16:25.841Z,3.87
2018-07-16T12:18:54.980Z,3.10
2018-07-16T12:21:25.370Z,3.77
2018-07-16T12:23:54.510Z,4.27
2018-07-16T12:26:23.803Z,4.10
2018-07-16T12:28:53.054Z,3.80
2018-07-16T12:31:22.344Z,3.80
2018-07-16T12:33:51.610Z,3.77
2018-07-16T12:36:21.848Z,3.80
2018-07-16T12:38:51.096Z,3.90
2018-07-16T12:41:20.399Z,3.73
2018-07-16T12:43:49.680Z,3.00
2018-07-16T12:46:20.132Z,3.63
2018-07-16T12:48:49.395Z,3.70
2018-07-16T12:51:18.752Z,4.50
2018-07-16T12:53:47.694Z,4.00
2018-07-16T12:56:16.582Z,3.90
2018-07-16T12:58:45.502Z,4.23
2018-07-16T13:01:14.482Z,3.90
2018-07-16T13:03:43.696Z,4.03
2018-07-16T13:06:12.753Z,4.30
2018-07-16T13:08:41.587Z,3.43
2018-07-16T13:11:10.492Z,3.63
2018-07-16T13:13:39.467Z,3.60
2018-07-16T13:16:08.490Z,3.70
2018-07-16T13:18:37.431Z,3.00
2018-07-16T13:21:09.918Z,3.53
2018-07-16T13:23:38.870Z,3.77
2018-07-16T13:26:07.768Z,3.43
2018-07-16T13:28:36.682Z,3.60
2018-07-16T13:31:05.597Z,3.57
2018-07-16T13:33:34.554Z,3.60
2018-07-16T13:36:03.520Z,3.47
2018-07-16T13:38:32.464Z,3.30
2018-07-16T13:41:01.407Z,4.00
2018-07-16T13:43:30.436Z,3.70
2018-07-16T13:45:59.478Z,4.10
2018-07-16T13:48:28.406Z,3.63
2018-07-16T13:50:57.448Z,4.57
2018-07-16T13:53:26.354Z,4.37
2018-07-16T13:55:55.257Z,3.50
2018-07-16T13:58:24.216Z,4.33
2018-07-16T14:00:53.186Z,4.30
2018-07-16T14:03:22.177Z,4.50
2018-07-16T14:05:51.158Z,4.60
2018-07-16T14:08:20.084Z,3.83
2018-07-16T14:10:49.093Z,4.10
2018-07-16T14:13:18.058Z,4.20
2018-07-16T14:15:47.040Z,3.73
2018-07-16T14:18:15.944Z,3.87
2018-07-16T14:20:44.919Z,4.10
2018-07-16T14:23:13.928Z,3.93
2018-07-16T14:25:42.797Z,3.90
2018-07-16T14:28:11.726Z,3.47
2018-07-16T14:30:41.355Z,3.73
2018-07-16T14:33:10.303Z,4.43
2018-07-16T14:35:39.253Z,3.63
2018-07-16T14:38:08.214Z,4.37
2018-07-16T14:40:37.147Z,3.83
2018-07-16T14:43:06.068Z,4.30
2018-07-16T14:45:35.215Z,4.03
2018-07-16T14:48:04.179Z,4.00
2018-07-16T14:50:33.295Z,4.00
2018-07-16T14:53:08.723Z,4.23
2018-07-16T14:55:37.630Z,3.90
2018-07-16T14:58:06.601Z,4.40
2018-07-16T15:00:35.521Z,4.60
2018-07-16T15:03:04.484Z,4.17
2018-07-16T15:05:33.417Z,4.07
2018-07-16T15:08:02.447Z,4.00
2018-07-16T15:10:31.341Z,4.93
2018-07-16T15:13:00.252Z,4.87
2018-07-16T15:15:34.655Z,4.13
2018-07-16T15:18:03.557Z,4.50
2018-07-16T15:20:32.661Z,3.70
2018-07-16T15:23:01.457Z,4.10
2018-07-16T15:25:30.605Z,4.47
2018-07-16T15:27:59.493Z,4.60
2018-07-16T15:30:28.447Z,5.27
2018-07-16T15:32:57.347Z,4.20
2018-07-16T15:35:26.257Z,4.53
2018-07-16T15:37:55.447Z,4.30
2018-07-16T15:40:24.347Z,4.33
2018-07-16T15:42:53.312Z,4.10
2018-07-16T15:45:22.380Z,4.90
2018-07-16T15:47:51.979Z,4.63
2018-07-16T15:50:20.912Z,4.03
2018-07-16T15:52:49.892Z,4.03
2018-07-16T15:55:18.792Z,3.87
2018-07-16T15:57:47.698Z,4.40
2018-07-16T16:00:16.810Z,4.40
2018-07-16T16:02:45.684Z,4.43
2018-07-16T16:05:14.560Z,4.17
2018-07-16T16:07:43.448Z,4.23
2018-07-16T16:10:12.401Z,4.10
2018-07-16T16:12:41.306Z,4.10
2018-07-16T16:15:10.863Z,3.90
2018-07-16T16:17:39.895Z,3.50
2018-07-16T16:20:08.792Z,4.33
2018-07-16T16:22:37.774Z,4.40
2018-07-16T16:25:06.693Z,4.60
2018-07-16T16:27:35.757Z,4.50
2018-07-16T16:30:05.599Z,4.47
2018-07-16T16:32:34.567Z,4.17
2018-07-16T16:35:03.626Z,3.93
2018-07-16T16:37:32.690Z,4.20
2018-07-16T16:40:01.549Z,3.60
2018-07-16T16:42:30.592Z,3.87
2018-07-16T16:44:59.678Z,3.70
2018-07-16T16:47:28.760Z,3.90
2018-07-16T16:49:57.647Z,3.37
2018-07-16T16:52:26.543Z,3.93
2018-07-16T16:54:55.540Z,4.30
2018-07-16T16:57:24.474Z,3.80
2018-07-16T16:59:53.396Z,3.53
2018-07-16T17:02:22.418Z,3.77
2018-07-16T17:04:51.409Z,10.23
2018-07-16T17:07:20.408Z,3.70
2018-07-16T17:09:49.413Z,3.47
2018-07-16T17:12:18.592Z,3.43
2018-07-16T17:14:47.525Z,4.10
2018-07-16T17:17:16.438Z,3.40
2018-07-16T17:19:45.426Z,3.50
2018-07-16T17:22:14.422Z,3.77
2018-07-16T17:24:43.414Z,3.40
2018-07-16T17:27:19.037Z,3.50
2018-07-16T17:29:47.952Z,4.67
2018-07-16T17:32:16.907Z,3.50
2018-07-16T17:34:45.854Z,3.43
2018-07-16T17:37:14.780Z,3.30
2018-07-16T17:39:43.715Z,3.43
2018-07-16T17:42:12.665Z,3.40
2018-07-16T17:44:41.607Z,3.40
2018-07-16T17:47:10.621Z,3.90
2018-07-16T17:49:39.627Z,3.60
2018-07-16T17:52:08.541Z,4.07
2018-07-16T17:54:37.414Z,4.63
2018-07-16T17:57:06.716Z,3.50
2018-07-16T17:59:35.805Z,3.77
2018-07-16T18:02:04.769Z,3.67
2018-07-16T18:04:33.763Z,3.87
2018-07-16T18:07:02.691Z,4.07
2018-07-16T18:09:31.621Z,3.47
2018-07-16T18:12:00.508Z,3.83
2018-07-16T18:14:29.439Z,3.50
2018-07-16T18:16:58.367Z,3.60
2018-07-16T18:19:27.369Z,3.57
2018-07-16T18:21:56.341Z,3.70
2018-07-16T18:24:25.285Z,3.23
2018-07-16T18:26:54.257Z,3.33
2018-07-16T18:29:23.205Z,3.80
2018-07-16T18:31:52.203Z,3.57
2018-07-16T18:34:21.313Z,3.90
2018-07-16T18:36:50.300Z,3.40
2018-07-16T18:39:19.266Z,4.03
2018-07-16T18:41:48.337Z,3.70
2018-07-16T18:44:18.099Z,4.03
2018-07-16T18:46:47.003Z,3.80
2018-07-16T18:49:15.941Z,3.53
2018-07-16T18:51:44.872Z,3.60
2018-07-16T18:54:13.797Z,4.00
2018-07-16T18:56:42.829Z,3.70
2018-07-16T18:59:11.775Z,3.37
2018-07-16T19:01:41.041Z,3.57
2018-07-16T19:04:09.985Z,3.97
2018-07-16T19:06:40.614Z,3.80
2018-07-16T19:09:10.028Z,3.87
2018-07-16T19:11:39.510Z,3.73
2018-07-16T19:14:08.919Z,3.30
2018-07-16T19:16:38.068Z,3.60
2018-07-16T19:19:07.357Z,4.10
2018-07-16T19:21:36.415Z,3.83
2018-07-16T19:24:05.367Z,4.50
2018-07-16T19:26:34.300Z,4.27
2018-07-16T19:29:03.303Z,4.27
2018-07-16T19:31:32.241Z,3.80
2018-07-16T19:34:01.273Z,4.33
2018-07-16T19:36:30.311Z,4.10
2018-07-16T19:38:59.360Z,3.77
2018-07-16T19:41:28.216Z,5.63
2018-07-16T19:43:57.288Z,5.63
2018-07-16T19:46:26.278Z,5.80
2018-07-16T19:48:55.396Z,6.70
2018-07-16T19:51:24.304Z,6.20
2018-07-16T19:53:53.220Z,5.90
2018-07-16T19:56:22.212Z,6.53
2018-07-16T19:58:51.316Z,5.50
2018-07-16T20:01:20.404Z,6.40
2018-07-16T20:03:49.409Z,6.63
2018-07-16T20:06:18.321Z,6.43
2018-07-16T20:08:47.214Z,6.63
2018-07-16T20:11:16.202Z,6.67
2018-07-16T20:13:45.136Z,5.03
2018-07-16T20:16:14.037Z,4.80
2018-07-16T20:18:42.941Z,5.07
2018-07-16T20:21:11.853Z,5.00
2018-07-16T20:23:40.772Z,4.50
2018-07-16T20:26:13.463Z,4.80
2018-07-16T20:28:42.410Z,4.73
2018-07-16T20:31:11.352Z,4.73
2018-07-16T20:33:40.534Z,4.80
2018-07-16T20:36:09.447Z,5.07
2018-07-16T20:38:38.347Z,4.90
2018-07-16T20:41:07.312Z,5.30
2018-07-16T20:43:36.308Z,6.30
2018-07-16T20:46:05.602Z,5.27
2018-07-16T20:48:34.604Z,5.23
2018-07-16T20:51:03.589Z,5.57
2018-07-16T20:53:32.543Z,5.67
2018-07-16T20:56:01.480Z,6.07
2018-07-16T20:58:30.394Z,6.40
2018-07-16T21:00:59.386Z,5.73
2018-07-16T21:03:28.906Z,6.00
2018-07-16T21:05:57.910Z,5.97
2018-07-16T21:08:26.858Z,6.93
2018-07-16T21:10:55.875Z,6.60
2018-07-16T21:13:24.783Z,6.47
2018-07-16T21:15:53.728Z,6.37
2018-07-16T21:18:22.730Z,6.70
2018-07-16T21:20:51.776Z,6.47
2018-07-16T21:23:20.708Z,6.70
2018-07-16T21:25:49.622Z,6.20
2018-07-16T21:28:18.630Z,6.73
2018-07-16T21:30:47.545Z,6.50
2018-07-16T21:33:16.495Z,6.83
2018-07-16T21:35:45.516Z,7.13
2018-07-16T21:38:14.396Z,6.67
2018-07-16T21:40:43.353Z,6.93
2018-07-16T21:43:12.198Z,5.97
2018-07-16T21:45:41.142Z,6.10
2018-07-16T21:48:10.036Z,4.77
2018-07-16T21:50:38.959Z,5.10
2018-07-16T21:53:07.880Z,4.87
2018-07-16T21:55:36.820Z,4.93
2018-07-16T21:58:05.812Z,4.60
2018-07-16T22:00:34.938Z,4.73
2018-07-16T22:03:03.788Z,4.63
2018-07-16T22:05:32.701Z,4.67
2018-07-16T22:08:01.620Z,3.87
2018-07-16T22:10:30.659Z,3.97
2018-07-16T22:12:59.549Z,4.37
2018-07-16T22:15:29.510Z,3.97
2018-07-16T22:17:59.193Z,4.43
2018-07-16T22:20:28.537Z,4.27
2018-07-16T22:22:57.647Z,4.20
2018-07-16T22:25:27.229Z,4.60
2018-07-16T22:27:56.204Z,4.17
2018-07-16T22:30:25.108Z,4.50
2018-07-16T22:32:54.100Z,4.20
2018-07-16T22:35:23.591Z,4.03
2018-07-16T22:37:52.482Z,3.73
2018-07-16T22:40:21.347Z,3.63
2018-07-16T22:42:50.296Z,3.90
2018-07-16T22:45:19.227Z,3.43
2018-07-16T22:47:48.127Z,3.80
2018-07-16T22:50:17.128Z,4.00
2018-07-16T22:52:46.060Z,3.70
2018-07-16T22:55:14.963Z,3.87
2018-07-16T22:57:43.871Z,4.00
2018-07-16T23:00:12.875Z,4.00
2018-07-16T23:02:41.802Z,4.23
2018-07-16T23:05:10.780Z,4.13
2018-07-16T23:07:39.771Z,3.90
2018-07-16T23:10:08.768Z,3.90
2018-07-16T23:12:37.668Z,4.17
2018-07-16T23:15:06.756Z,3.83
2018-07-16T23:17:35.668Z,4.10
2018-07-16T23:20:04.680Z,4.33
2018-07-16T23:22:43.600Z,4.23
2018-07-16T23:25:12.524Z,3.70
2018-07-16T23:27:41.416Z,3.90
2018-07-16T23:30:10.312Z,4.20
2018-07-16T23:32:39.320Z,4.10
2018-07-16T23:35:08.230Z,3.70
2018-07-16T23:37:37.213Z,3.80
2018-07-16T23:40:06.250Z,3.87
2018-07-16T23:42:35.401Z,3.53
2018-07-16T23:45:04.951Z,3.90
2018-07-16T23:47:33.899Z,3.43
2018-07-16T23:50:02.902Z,3.70
2018-07-16T23:52:31.942Z,3.83
2018-07-16T23:55:00.978Z,3.43
2018-07-16T23:57:30.209Z,3.37
2018-07-16T23:59:59.200Z,4.17
